createdAt,value
2018-03-31T00:01:08.813Z,70.35
2018-03-31T00:03:36.851Z,70.11
2018-03-31T00:06:05.602Z,70.37
2018-03-31T00:08:33.742Z,71.02
2018-03-31T00:11:03.366Z,71.56
2018-03-31T00:13:31.171Z,71.80
2018-03-31T00:15:59.596Z,71.38
2018-03-31T00:18:27.477Z,71.55
2018-03-31T00:20:56.454Z,71.18
2018-03-31T00:23:25.154Z,71.27
2018-03-31T00:25:54.304Z,71.34
2018-03-31T00:28:23.195Z,71.83
2018-03-31T00:30:52.327Z,71.60
2018-03-31T00:33:20.747Z,71.52
2018-03-31T00:35:49.387Z,72.21
2018-03-31T00:38:18.000Z,73.10
2018-03-31T00:40:46.228Z,72.76
2018-03-31T00:43:15.750Z,72.17
2018-03-31T00:45:43.557Z,71.77
2018-03-31T00:48:12.139Z,71.81
2018-03-31T00:50:40.718Z,71.65
2018-03-31T00:53:10.371Z,71.61
2018-03-31T00:55:38.179Z,71.28
2018-03-31T00:58:07.337Z,71.01
2018-03-31T01:00:35.544Z,70.71
2018-03-31T01:03:04.265Z,70.42
2018-03-31T01:05:34.844Z,70.36
2018-03-31T01:08:02.954Z,70.12
2018-03-31T01:10:32.366Z,70.17
2018-03-31T01:13:01.490Z,70.26
2018-03-31T01:15:29.754Z,70.20
2018-03-31T01:17:58.440Z,70.57
2018-03-31T01:20:27.298Z,70.91
2018-03-31T01:22:55.523Z,71.24
2018-03-31T01:25:24.194Z,71.65
2018-03-31T01:27:51.990Z,71.94
2018-03-31T01:30:21.456Z,71.91
2018-03-31T01:32:50.616Z,72.38
2018-03-31T01:35:18.693Z,72.36
2018-03-31T01:37:48.560Z,72.97
2018-03-31T01:40:17.374Z,73.25
2018-03-31T01:42:46.120Z,73.30
2018-03-31T01:45:14.706Z,72.90
2018-03-31T01:47:43.348Z,72.57
2018-03-31T01:50:12.438Z,72.46
2018-03-31T01:52:42.248Z,72.93
2018-03-31T01:55:11.549Z,72.60
2018-03-31T01:57:41.317Z,72.56
2018-03-31T02:00:11.451Z,72.67
2018-03-31T02:02:41.109Z,73.47
2018-03-31T02:05:08.945Z,73.58
2018-03-31T02:07:36.755Z,73.33
2018-03-31T02:10:06.960Z,73.22
2018-03-31T02:12:35.635Z,73.06
2018-03-31T02:15:04.213Z,72.98
2018-03-31T02:17:32.033Z,72.62
2018-03-31T02:20:00.280Z,72.43
2018-03-31T02:22:28.540Z,72.64
2018-03-31T02:24:57.456Z,73.03
2018-03-31T02:27:26.031Z,73.19
2018-03-31T02:29:55.172Z,73.48
2018-03-31T02:32:22.980Z,73.80
2018-03-31T02:34:50.887Z,73.25
2018-03-31T02:37:19.584Z,73.23
2018-03-31T02:39:47.414Z,73.55
2018-03-31T02:42:15.225Z,74.23
2018-03-31T02:44:45.535Z,74.74
2018-03-31T02:47:13.976Z,75.07
2018-03-31T02:49:43.199Z,75.83
2018-03-31T02:52:11.336Z,75.43
2018-03-31T02:54:40.182Z,75.35
2018-03-31T02:57:08.500Z,75.35
2018-03-31T02:59:37.323Z,74.92
2018-03-31T03:02:06.157Z,75.22
2018-03-31T03:04:33.961Z,74.82
2018-03-31T03:07:01.841Z,75.31
2018-03-31T03:09:30.011Z,75.23
2018-03-31T03:11:58.150Z,74.95
2018-03-31T03:14:26.738Z,75.15
2018-03-31T03:16:55.258Z,74.81
2018-03-31T03:19:24.517Z,75.04
2018-03-31T03:21:54.134Z,74.95
2018-03-31T03:24:21.688Z,75.53
2018-03-31T03:26:50.046Z,75.54
2018-03-31T03:29:18.700Z,75.93
2018-03-31T03:31:46.624Z,75.52
2018-03-31T03:34:14.190Z,75.51
2018-03-31T03:36:42.761Z,75.14
2018-03-31T03:39:10.791Z,75.63
2018-03-31T03:41:38.568Z,75.95
2018-03-31T03:44:07.282Z,75.99
2018-03-31T03:46:35.279Z,75.77
2018-03-31T03:49:03.819Z,76.01
2018-03-31T03:51:32.475Z,75.88
2018-03-31T03:54:00.022Z,76.04
2018-03-31T03:56:29.119Z,76.19
2018-03-31T03:58:58.008Z,76.66
2018-03-31T04:01:25.621Z,76.23
2018-03-31T04:03:54.074Z,76.87
2018-03-31T04:06:21.590Z,76.70
2018-03-31T04:08:49.705Z,77.09
2018-03-31T04:11:17.302Z,76.78
2018-03-31T04:13:45.530Z,76.85
2018-03-31T04:16:13.053Z,76.83
2018-03-31T04:18:40.980Z,77.22
2018-03-31T04:21:08.510Z,76.97
2018-03-31T04:23:36.913Z,76.72
2018-03-31T04:26:04.505Z,76.62
2018-03-31T04:28:33.009Z,76.91
2018-03-31T04:31:01.039Z,76.83
2018-03-31T04:33:29.070Z,76.58
2018-03-31T04:35:58.502Z,76.64
2018-03-31T04:38:26.826Z,76.61
2018-03-31T04:40:55.501Z,76.54
2018-03-31T04:43:23.718Z,76.84
2018-03-31T04:45:51.279Z,76.96
2018-03-31T04:48:19.657Z,77.10
2018-03-31T04:50:48.230Z,77.34
2018-03-31T04:53:15.849Z,77.37
2018-03-31T04:55:44.159Z,77.89
2018-03-31T04:58:13.373Z,77.86
2018-03-31T05:00:45.615Z,77.95
2018-03-31T05:03:14.147Z,77.94
2018-03-31T05:05:41.952Z,77.84
2018-03-31T05:08:10.196Z,77.90
2018-03-31T05:10:37.804Z,78.04
2018-03-31T05:13:06.284Z,77.96
2018-03-31T05:15:34.149Z,77.79
2018-03-31T05:18:01.667Z,78.15
2018-03-31T05:20:30.093Z,78.61
2018-03-31T05:22:57.617Z,78.96
2018-03-31T05:25:26.392Z,79.30
2018-03-31T05:27:54.362Z,79.49
2018-03-31T05:30:21.917Z,79.83
2018-03-31T05:32:49.579Z,79.79
2018-03-31T05:35:17.380Z,79.82
2018-03-31T05:37:46.410Z,79.82
2018-03-31T05:40:14.918Z,79.81
2018-03-31T05:42:43.912Z,79.49
2018-03-31T05:45:12.806Z,79.20
2018-03-31T05:47:41.300Z,79.09
2018-03-31T05:50:09.961Z,79.28
2018-03-31T05:52:37.559Z,78.99
2018-03-31T05:55:05.132Z,79.14
2018-03-31T05:57:35.441Z,78.92
2018-03-31T06:00:03.330Z,78.85
2018-03-31T06:02:34.085Z,79.26
2018-03-31T06:05:02.714Z,79.52
2018-03-31T06:07:33.457Z,79.29
2018-03-31T06:10:02.216Z,78.59
2018-03-31T06:12:30.604Z,78.35
2018-03-31T06:14:59.757Z,78.44
2018-03-31T06:17:28.161Z,78.29
2018-03-31T06:19:55.685Z,77.85
2018-03-31T06:22:24.490Z,77.90
2018-03-31T06:24:52.873Z,78.03
2018-03-31T06:27:20.588Z,78.09
2018-03-31T06:29:48.805Z,78.21
2018-03-31T06:32:17.553Z,78.19
2018-03-31T06:34:45.286Z,78.26
2018-03-31T06:37:13.999Z,78.15
2018-03-31T06:39:44.283Z,78.41
2018-03-31T06:42:13.336Z,78.54
2018-03-31T06:44:41.109Z,78.35
2018-03-31T06:47:10.375Z,78.24
2018-03-31T06:49:38.511Z,78.29
2018-03-31T06:52:07.721Z,78.18
2018-03-31T06:54:35.599Z,77.63
2018-03-31T06:57:04.793Z,77.50
2018-03-31T06:59:33.247Z,77.75
2018-03-31T07:02:01.640Z,77.30
2018-03-31T07:04:29.208Z,77.11
2018-03-31T07:06:57.723Z,77.04
2018-03-31T07:09:26.293Z,76.65
2018-03-31T07:11:54.110Z,76.20
2018-03-31T07:14:23.274Z,75.67
2018-03-31T07:16:52.396Z,75.91
2018-03-31T07:19:20.722Z,75.91
2018-03-31T07:21:49.427Z,75.52
2018-03-31T07:24:19.612Z,75.23
2018-03-31T07:26:48.131Z,74.94
2018-03-31T07:29:15.701Z,74.79
2018-03-31T07:31:43.255Z,74.39
2018-03-31T07:34:12.663Z,74.97
2018-03-31T07:36:41.054Z,74.74
2018-03-31T07:39:09.469Z,74.88
2018-03-31T07:41:37.303Z,74.35
2018-03-31T07:44:05.550Z,74.11
2018-03-31T07:46:33.688Z,73.84
2018-03-31T07:49:01.425Z,73.33
2018-03-31T07:51:29.822Z,73.08
2018-03-31T07:53:57.952Z,73.47
2018-03-31T07:56:27.020Z,72.66
2018-03-31T07:58:55.608Z,72.03
2018-03-31T08:01:24.788Z,72.10
2018-03-31T08:03:53.153Z,71.58
2018-03-31T08:06:21.568Z,71.92
2018-03-31T08:08:49.268Z,70.60
2018-03-31T08:11:16.832Z,70.46
2018-03-31T08:13:45.188Z,70.34
2018-03-31T08:16:13.097Z,71.05
2018-03-31T08:18:41.310Z,70.94
2018-03-31T08:21:09.132Z,70.46
2018-03-31T08:23:37.705Z,67.12
2018-03-31T08:26:06.082Z,66.74
2018-03-31T08:28:34.630Z,65.48
2018-03-31T08:31:02.287Z,65.82
2018-03-31T08:33:30.631Z,65.44
2018-03-31T08:36:00.157Z,65.16
2018-03-31T08:38:28.911Z,64.66
2018-03-31T08:40:57.395Z,64.79
2018-03-31T08:43:25.926Z,65.07
2018-03-31T08:45:55.500Z,64.87
2018-03-31T08:48:25.652Z,63.86
2018-03-31T08:50:54.336Z,64.51
2018-03-31T08:53:23.101Z,63.12
2018-03-31T08:55:50.653Z,61.76
2018-03-31T08:58:18.927Z,61.33
2018-03-31T09:00:47.079Z,62.22
2018-03-31T09:03:15.467Z,60.88
2018-03-31T09:05:44.563Z,61.63
2018-03-31T09:08:12.104Z,60.51
2018-03-31T09:10:40.424Z,60.41
2018-03-31T09:13:09.685Z,59.60
2018-03-31T09:15:37.584Z,58.73
2018-03-31T09:18:07.024Z,59.08
2018-03-31T09:20:35.675Z,59.40
2018-03-31T09:23:05.076Z,59.70
2018-03-31T09:25:33.516Z,59.15
2018-03-31T09:28:02.063Z,58.98
2018-03-31T09:30:30.827Z,57.37
2018-03-31T09:32:59.102Z,57.22
2018-03-31T09:35:26.638Z,57.11
2018-03-31T09:37:55.544Z,56.57
2018-03-31T09:40:24.239Z,57.09
2018-03-31T09:42:53.657Z,56.83
2018-03-31T09:45:22.139Z,57.32
2018-03-31T09:47:50.878Z,57.07
2018-03-31T09:50:19.482Z,55.68
2018-03-31T09:52:47.381Z,54.05
2018-03-31T09:55:15.190Z,52.84
2018-03-31T09:57:45.137Z,51.27
2018-03-31T10:00:14.486Z,49.24
2018-03-31T10:02:42.822Z,51.50
2018-03-31T10:05:10.383Z,52.14
2018-03-31T10:07:37.988Z,53.19
2018-03-31T10:10:05.532Z,50.21
2018-03-31T10:12:33.978Z,49.80
2018-03-31T10:15:01.708Z,50.08
2018-03-31T10:17:29.505Z,50.25
2018-03-31T10:19:57.430Z,50.10
2018-03-31T10:22:25.000Z,48.17
2018-03-31T10:24:53.036Z,48.18
2018-03-31T10:27:21.602Z,46.89
2018-03-31T10:29:49.142Z,46.21
2018-03-31T10:32:16.710Z,46.42
2018-03-31T10:34:45.605Z,46.74
2018-03-31T10:37:14.441Z,44.99
2018-03-31T10:39:42.342Z,46.84
2018-03-31T10:42:10.187Z,45.95
2018-03-31T10:44:38.130Z,46.00
2018-03-31T10:47:05.656Z,45.67
2018-03-31T10:49:34.288Z,47.45
2018-03-31T10:52:03.269Z,48.43
2018-03-31T10:54:33.889Z,50.45
2018-03-31T10:57:02.219Z,49.46
2018-03-31T10:59:30.726Z,48.07
2018-03-31T11:01:58.303Z,51.50
2018-03-31T11:04:25.923Z,48.37
2018-03-31T11:06:53.479Z,48.51
2018-03-31T11:09:22.121Z,48.43
2018-03-31T11:11:50.522Z,46.71
2018-03-31T11:14:18.036Z,46.76
2018-03-31T11:16:47.438Z,47.27
2018-03-31T11:19:15.679Z,46.19
2018-03-31T11:21:44.528Z,45.86
2018-03-31T11:24:13.186Z,46.46
2018-03-31T11:26:41.600Z,45.98
2018-03-31T11:29:11.031Z,43.28
2018-03-31T11:31:39.623Z,43.59
2018-03-31T11:34:08.809Z,43.06
2018-03-31T11:36:37.293Z,42.33
2018-03-31T11:39:05.144Z,41.75
2018-03-31T11:41:33.505Z,39.64
2018-03-31T11:44:01.631Z,40.54
2018-03-31T11:46:29.539Z,38.31
2018-03-31T11:48:57.447Z,39.37
2018-03-31T11:51:25.088Z,38.88
2018-03-31T11:53:52.607Z,39.08
2018-03-31T11:56:21.480Z,39.66
2018-03-31T11:58:49.302Z,39.43
2018-03-31T12:01:17.657Z,38.36
2018-03-31T12:03:45.174Z,37.51
2018-03-31T12:06:13.510Z,39.35
2018-03-31T12:08:41.104Z,39.29
2018-03-31T12:11:08.747Z,38.28
2018-03-31T12:13:37.232Z,38.98
2018-03-31T12:16:04.769Z,38.03
2018-03-31T12:18:32.783Z,38.08
2018-03-31T12:21:00.948Z,37.75
2018-03-31T12:23:28.752Z,37.37
2018-03-31T12:25:57.402Z,37.49
2018-03-31T12:28:25.711Z,35.00
2018-03-31T12:30:54.022Z,35.75
2018-03-31T12:33:21.575Z,34.19
2018-03-31T12:35:49.828Z,33.82
2018-03-31T12:38:18.259Z,37.26
2018-03-31T12:40:46.598Z,36.08
2018-03-31T12:43:15.204Z,36.98
2018-03-31T12:45:42.918Z,35.71
2018-03-31T12:48:11.164Z,36.12
2018-03-31T12:50:40.363Z,35.07
2018-03-31T12:53:08.646Z,35.35
2018-03-31T12:55:37.003Z,33.83
2018-03-31T12:58:05.911Z,34.43
2018-03-31T13:00:33.489Z,31.04
2018-03-31T13:03:01.725Z,31.66
2018-03-31T13:05:30.091Z,30.92
2018-03-31T13:07:57.864Z,31.51
2018-03-31T13:10:26.448Z,30.47
2018-03-31T13:12:53.976Z,30.88
2018-03-31T13:15:21.523Z,31.08
2018-03-31T13:17:49.783Z,32.33
2018-03-31T13:20:18.177Z,30.90
2018-03-31T13:22:45.921Z,32.07
2018-03-31T13:25:13.819Z,30.63
2018-03-31T13:27:42.024Z,29.15
2018-03-31T13:30:10.471Z,29.71
2018-03-31T13:32:40.329Z,29.95
2018-03-31T13:35:10.459Z,31.23
2018-03-31T13:37:38.304Z,30.01
2018-03-31T13:40:05.830Z,30.42
2018-03-31T13:42:34.482Z,29.43
2018-03-31T13:45:02.362Z,30.52
2018-03-31T13:47:31.082Z,30.39
2018-03-31T13:49:59.558Z,29.57
2018-03-31T13:52:28.337Z,30.44
2018-03-31T13:54:57.071Z,30.53
2018-03-31T13:57:25.194Z,30.23
2018-03-31T13:59:52.722Z,30.34
2018-03-31T14:02:22.190Z,32.13
2018-03-31T14:04:50.585Z,32.14
2018-03-31T14:07:18.455Z,31.52
2018-03-31T14:09:47.860Z,32.41
2018-03-31T14:12:16.306Z,32.75
2018-03-31T14:14:43.848Z,32.95
2018-03-31T14:17:11.457Z,32.20
2018-03-31T14:19:39.035Z,31.97
2018-03-31T14:22:06.638Z,32.52
2018-03-31T14:24:36.073Z,34.51
2018-03-31T14:27:03.627Z,31.79
2018-03-31T14:29:31.148Z,31.95
2018-03-31T14:32:00.073Z,32.78
2018-03-31T14:34:27.605Z,33.61
2018-03-31T14:36:57.124Z,34.46
2018-03-31T14:39:25.475Z,33.79
2018-03-31T14:41:53.906Z,33.40
2018-03-31T14:44:21.482Z,32.81
2018-03-31T14:46:49.243Z,33.78
2018-03-31T14:49:16.835Z,34.00
2018-03-31T14:51:44.584Z,34.04
2018-03-31T14:54:12.917Z,33.15
2018-03-31T14:56:40.441Z,34.39
2018-03-31T14:59:11.905Z,34.67
2018-03-31T15:01:40.051Z,35.39
2018-03-31T15:04:08.531Z,35.20
2018-03-31T15:06:37.870Z,34.87
2018-03-31T15:09:05.778Z,33.42
2018-03-31T15:11:34.340Z,35.64
2018-03-31T15:14:03.352Z,34.58
2018-03-31T15:16:30.991Z,34.26
2018-03-31T15:19:00.586Z,32.41
2018-03-31T15:21:29.360Z,32.16
2018-03-31T15:23:57.605Z,32.48
2018-03-31T15:26:25.947Z,32.64
2018-03-31T15:28:53.870Z,33.38
2018-03-31T15:31:21.770Z,34.44
2018-03-31T15:33:51.435Z,34.50
2018-03-31T15:36:20.043Z,35.76
2018-03-31T15:38:48.264Z,33.93
2018-03-31T15:41:16.523Z,33.68
2018-03-31T15:43:44.389Z,34.62
2018-03-31T15:46:12.783Z,34.21
2018-03-31T15:48:41.532Z,35.42
2018-03-31T15:51:09.316Z,35.30
2018-03-31T15:53:38.172Z,35.39
2018-03-31T15:56:07.514Z,35.34
2018-03-31T15:58:35.044Z,34.21
2018-03-31T16:01:04.745Z,31.85
2018-03-31T16:03:33.195Z,30.95
2018-03-31T16:06:01.287Z,31.11
2018-03-31T16:08:29.043Z,30.23
2018-03-31T16:10:57.033Z,29.66
2018-03-31T16:13:24.585Z,31.07
2018-03-31T16:15:52.697Z,32.67
2018-03-31T16:18:21.441Z,34.07
2018-03-31T16:20:51.964Z,33.34
2018-03-31T16:23:20.813Z,33.92
2018-03-31T16:25:50.385Z,34.23
2018-03-31T16:28:18.836Z,35.39
2018-03-31T16:30:47.289Z,35.71
2018-03-31T16:33:16.514Z,35.84
2018-03-31T16:35:46.477Z,36.21
2018-03-31T16:38:14.024Z,37.44
2018-03-31T16:40:42.216Z,36.44
2018-03-31T16:43:11.516Z,35.81
2018-03-31T16:45:40.189Z,35.63
2018-03-31T16:48:09.527Z,35.47
2018-03-31T16:50:37.980Z,36.04
2018-03-31T16:53:06.431Z,36.30
2018-03-31T16:55:35.959Z,35.40
2018-03-31T16:58:06.053Z,35.42
2018-03-31T17:00:34.464Z,35.47
2018-03-31T17:03:06.357Z,34.71
2018-03-31T17:05:34.310Z,33.44
2018-03-31T17:08:03.293Z,31.21
2018-03-31T17:10:34.445Z,30.25
2018-03-31T17:13:03.344Z,31.51
2018-03-31T17:15:33.039Z,31.70
2018-03-31T17:18:03.981Z,31.24
2018-03-31T17:20:39.355Z,31.42
2018-03-31T17:23:06.997Z,30.99
2018-03-31T17:25:36.417Z,30.25
2018-03-31T17:28:05.020Z,30.68
2018-03-31T17:30:34.085Z,31.05
2018-03-31T17:33:04.057Z,30.90
2018-03-31T17:35:33.506Z,31.05
2018-03-31T17:38:01.687Z,31.92
2018-03-31T17:40:33.010Z,31.87
2018-03-31T17:43:01.738Z,32.49
2018-03-31T17:45:29.308Z,33.19
2018-03-31T17:47:57.988Z,33.76
2018-03-31T17:50:28.684Z,35.12
2018-03-31T17:52:57.992Z,36.40
2018-03-31T17:55:26.233Z,36.73
2018-03-31T17:57:54.927Z,37.23
2018-03-31T18:00:23.265Z,38.04
2018-03-31T18:02:51.966Z,38.33
2018-03-31T18:05:21.387Z,39.11
2018-03-31T18:07:48.988Z,39.87
2018-03-31T18:10:17.252Z,39.88
2018-03-31T18:12:45.742Z,39.50
2018-03-31T18:15:14.928Z,41.78
2018-03-31T18:17:43.444Z,41.74
2018-03-31T18:20:10.978Z,42.49
2018-03-31T18:22:38.869Z,42.14
2018-03-31T18:25:07.396Z,42.57
2018-03-31T18:27:38.224Z,42.45
2018-03-31T18:30:08.474Z,42.22
2018-03-31T18:32:37.905Z,43.64
2018-03-31T18:35:07.124Z,44.24
2018-03-31T18:37:34.689Z,45.08
2018-03-31T18:40:03.591Z,44.58
2018-03-31T18:42:31.401Z,45.68
2018-03-31T18:44:59.665Z,45.86
2018-03-31T18:47:28.115Z,46.30
2018-03-31T18:49:55.671Z,45.95
2018-03-31T18:52:23.236Z,46.43
2018-03-31T18:54:51.066Z,46.71
2018-03-31T18:57:18.615Z,46.25
2018-03-31T18:59:46.190Z,46.38
2018-03-31T19:02:14.900Z,47.95
2018-03-31T19:04:43.146Z,48.06
2018-03-31T19:07:12.344Z,48.31
2018-03-31T19:09:39.931Z,49.03
2018-03-31T19:12:08.101Z,49.15
2018-03-31T19:14:44.217Z,48.73
2018-03-31T19:17:15.829Z,48.34
2018-03-31T19:19:45.005Z,48.22
2018-03-31T19:22:15.506Z,48.42
2018-03-31T19:24:49.453Z,48.37
2018-03-31T19:27:18.444Z,48.43
2018-03-31T19:29:47.184Z,48.57
2018-03-31T19:32:15.971Z,48.85
2018-03-31T19:34:43.808Z,49.37
2018-03-31T19:37:12.339Z,49.15
2018-03-31T19:39:45.410Z,49.45
2018-03-31T19:42:16.481Z,50.11
2018-03-31T19:44:45.106Z,50.95
2018-03-31T19:47:14.251Z,50.93
2018-03-31T19:49:43.593Z,50.54
2018-03-31T19:52:12.062Z,50.92
2018-03-31T19:54:40.280Z,51.00
2018-03-31T19:57:08.229Z,50.75
2018-03-31T19:59:36.156Z,51.00
2018-03-31T20:02:06.421Z,51.04
2018-03-31T20:04:34.985Z,51.86
2018-03-31T20:07:02.499Z,51.74
2018-03-31T20:09:32.333Z,52.38
2018-03-31T20:12:01.108Z,53.13
2018-03-31T20:14:32.684Z,52.59
2018-03-31T20:17:01.055Z,52.86
2018-03-31T20:19:29.337Z,53.47
2018-03-31T20:21:59.247Z,53.75
2018-03-31T20:24:27.302Z,53.90
2018-03-31T20:26:54.830Z,54.26
2018-03-31T20:29:23.314Z,54.38
2018-03-31T20:31:51.215Z,54.29
2018-03-31T20:34:19.095Z,54.38
2018-03-31T20:36:47.445Z,53.83
2018-03-31T20:39:16.230Z,53.87
2018-03-31T20:41:44.775Z,53.72
2018-03-31T20:44:13.139Z,53.43
2018-03-31T20:46:42.958Z,53.92
2018-03-31T20:49:10.926Z,54.87
2018-03-31T20:51:38.493Z,54.74
2018-03-31T20:54:07.099Z,54.95
2018-03-31T20:56:35.627Z,55.00
2018-03-31T20:59:04.359Z,55.55
2018-03-31T21:01:33.304Z,55.81
2018-03-31T21:04:00.858Z,55.52
2018-03-31T21:06:29.150Z,55.35
2018-03-31T21:08:56.715Z,55.76
2018-03-31T21:11:24.742Z,55.75
2018-03-31T21:13:52.264Z,56.04
2018-03-31T21:16:23.282Z,55.99
2018-03-31T21:18:52.644Z,56.41
2018-03-31T21:21:20.198Z,56.38
2018-03-31T21:23:48.004Z,56.33
2018-03-31T21:26:16.416Z,56.05
2018-03-31T21:28:44.639Z,56.22
2018-03-31T21:31:12.270Z,56.43
2018-03-31T21:33:40.128Z,56.24
2018-03-31T21:36:07.640Z,55.96
2018-03-31T21:38:35.748Z,55.74
2018-03-31T21:41:04.083Z,55.92
2018-03-31T21:43:32.615Z,56.21
2018-03-31T21:46:01.100Z,55.21
2018-03-31T21:48:29.459Z,55.17
2018-03-31T21:50:57.024Z,55.29
2018-03-31T21:53:25.591Z,54.92
2018-03-31T21:55:53.358Z,54.56
2018-03-31T21:58:22.206Z,54.17
2018-03-31T22:00:50.636Z,54.53
2018-03-31T22:03:19.479Z,54.87
2018-03-31T22:05:47.265Z,55.39
2018-03-31T22:08:16.409Z,55.11
2018-03-31T22:10:44.770Z,55.45
2018-03-31T22:13:20.244Z,56.64
2018-03-31T22:15:49.867Z,56.93
2018-03-31T22:18:18.260Z,57.14
2018-03-31T22:20:46.692Z,56.50
2018-03-31T22:23:16.924Z,56.20
2018-03-31T22:25:45.079Z,56.75
2018-03-31T22:28:12.680Z,57.36
2018-03-31T22:30:40.219Z,57.08
2018-03-31T22:33:07.864Z,56.99
2018-03-31T22:35:37.288Z,57.08
2018-03-31T22:38:06.323Z,57.31
2018-03-31T22:40:34.080Z,57.41
2018-03-31T22:43:03.438Z,57.09
2018-03-31T22:45:31.589Z,56.72
2018-03-31T22:48:00.744Z,57.08
2018-03-31T22:50:29.516Z,57.07
2018-03-31T22:52:57.694Z,56.56
2018-03-31T22:55:25.207Z,56.56
2018-03-31T22:57:52.816Z,56.67
2018-03-31T23:00:20.357Z,56.98
2018-03-31T23:02:48.743Z,57.35
2018-03-31T23:05:17.220Z,57.38
2018-03-31T23:07:45.310Z,58.63
2018-03-31T23:10:13.227Z,59.87
2018-03-31T23:12:41.918Z,59.56
2018-03-31T23:15:09.787Z,59.89
2018-03-31T23:17:38.463Z,57.07
2018-03-31T23:20:07.115Z,56.79
2018-03-31T23:22:35.848Z,56.79
2018-03-31T23:25:04.170Z,57.35
2018-03-31T23:27:32.670Z,58.25
2018-03-31T23:30:00.916Z,58.87
2018-03-31T23:32:29.432Z,58.54
2018-03-31T23:34:59.103Z,59.39
2018-03-31T23:37:28.170Z,59.45
2018-03-31T23:39:57.261Z,59.95
2018-03-31T23:42:25.080Z,60.38
2018-03-31T23:44:52.875Z,60.73
2018-03-31T23:47:21.717Z,60.95
2018-03-31T23:49:49.513Z,61.88
2018-03-31T23:52:18.040Z,62.47
2018-03-31T23:54:45.628Z,63.30
2018-03-31T23:57:13.257Z,63.35
2018-03-31T23:59:41.407Z,63.09
